sensor_id;sensor_type;location;lat;lon;timestamp;pressure;altitude;pressure_sealevel;temperature;humidity
63115;BME280;49208;50.874;6.466;2023-04-27T06:02:49;100886.63;;;8.65;74.27
63115;BME280;49208;50.874;6.466;2023-04-27T06:05:14;100888.16;;;9.90;67.73
63115;BME280;49208;50.874;6.466;2023-04-27T06:07:40;100889.69;;;10.96;61.87
63115;BME280;49208;50.874;6.466;2023-04-27T06:10:07;100894.69;;;11.91;58.92
63115;BME280;49208;50.874;6.466;2023-04-27T06:12:33;100888.66;;;12.85;54.12
63115;BME280;49208;50.874;6.466;2023-04-27T06:14:58;100888.00;;;13.48;51.34
63115;BME280;49208;50.874;6.466;2023-04-27T06:17:24;100893.50;;;14.09;49.88
63115;BME280;49208;50.874;6.466;2023-04-27T06:19:49;100895.47;;;14.45;47.95
63115;BME280;49208;50.874;6.466;2023-04-27T06:22:15;100888.72;;;14.37;46.91
63115;BME280;49208;50.874;6.466;2023-04-27T06:24:41;100886.41;;;15.08;45.11
63115;BME280;49208;50.874;6.466;2023-04-27T06:27:06;100887.94;;;14.94;44.78
63115;BME280;49208;50.874;6.466;2023-04-27T06:29:31;100887.94;;;15.13;45.20
63115;BME280;49208;50.874;6.466;2023-04-27T06:31:57;100888.78;;;15.69;44.92
63115;BME280;49208;50.874;6.466;2023-04-27T06:34:22;100895.25;;;16.19;41.47
63115;BME280;49208;50.874;6.466;2023-04-27T06:36:48;100886.47;;;15.62;42.71
63115;BME280;49208;50.874;6.466;2023-04-27T06:39:13;100885.53;;;15.99;43.11
63115;BME280;49208;50.874;6.466;2023-04-27T06:41:38;100896.81;;;15.88;42.88
63115;BME280;49208;50.874;6.466;2023-04-27T06:44:04;100894.72;;;16.63;42.21
63115;BME280;49208;50.874;6.466;2023-04-27T06:46:29;100890.97;;;16.50;38.55
63115;BME280;49208;50.874;6.466;2023-04-27T06:48:55;100901.59;;;16.69;40.93
63115;BME280;49208;50.874;6.466;2023-04-27T06:51:20;100895.75;;;16.61;40.83
63115;BME280;49208;50.874;6.466;2023-04-27T06:53:46;100895.75;;;16.61;40.83
63115;BME280;49208;50.874;6.466;2023-04-27T06:56:11;100895.78;;;17.73;37.54
63115;BME280;49208;50.874;6.466;2023-04-27T06:58:37;100893.16;;;16.92;39.14
63115;BME280;49208;50.874;6.466;2023-04-27T07:01:03;100889.09;;;17.65;39.09
63115;BME280;49208;50.874;6.466;2023-04-27T07:03:28;100888.97;;;18.57;36.00
63115;BME280;49208;50.874;6.466;2023-04-27T07:05:54;100886.53;;;19.53;35.37
63115;BME280;49208;50.874;6.466;2023-04-27T07:08:21;100889.63;;;19.05;36.09
63115;BME280;49208;50.874;6.466;2023-04-27T07:10:46;100887.38;;;18.10;36.10
63115;BME280;49208;50.874;6.466;2023-04-27T07:13:12;100882.53;;;18.45;36.42
63115;BME280;49208;50.874;6.466;2023-04-27T07:15:37;100880.69;;;18.31;35.86
63115;BME280;49208;50.874;6.466;2023-04-27T07:18:03;100883.09;;;17.91;35.08
63115;BME280;49208;50.874;6.466;2023-04-27T07:20:28;100881.44;;;18.19;36.75
63115;BME280;49208;50.874;6.466;2023-04-27T07:22:54;100877.50;;;18.25;35.89
63115;BME280;49208;50.874;6.466;2023-04-27T07:25:20;100889.44;;;18.21;38.44
63115;BME280;49208;50.874;6.466;2023-04-27T07:27:45;100887.56;;;18.51;37.30
63115;BME280;49208;50.874;6.466;2023-04-27T07:30:11;100893.72;;;18.53;35.83
63115;BME280;49208;50.874;6.466;2023-04-27T07:32:41;100886.63;;;18.81;36.26
63115;BME280;49208;50.874;6.466;2023-04-27T07:35:07;100886.97;;;18.46;35.27
63115;BME280;49208;50.874;6.466;2023-04-27T07:37:37;100879.88;;;18.74;35.16
63115;BME280;49208;50.874;6.466;2023-04-27T07:40:03;100883.66;;;19.42;33.51
63115;BME280;49208;50.874;6.466;2023-04-27T07:42:40;100883.31;;;19.05;35.31
63115;BME280;49208;50.874;6.466;2023-04-27T07:45:07;100878.47;;;19.66;33.33
63115;BME280;49208;50.874;6.466;2023-04-27T07:47:33;100872.44;;;20.02;34.81
63115;BME280;49208;50.874;6.466;2023-04-27T07:49:58;100875.94;;;20.43;32.98
63115;BME280;49208;50.874;6.466;2023-04-27T07:52:24;100865.78;;;20.85;32.62
63115;BME280;49208;50.874;6.466;2023-04-27T07:54:49;100864.19;;;20.69;32.57
63115;BME280;49208;50.874;6.466;2023-04-27T07:57:15;100876.13;;;19.05;34.09
63115;BME280;49208;50.874;6.466;2023-04-27T07:59:40;100877.53;;;19.52;35.91
63115;BME280;49208;50.874;6.466;2023-04-27T08:02:06;100871.19;;;19.12;33.11
63115;BME280;49208;50.874;6.466;2023-04-27T08:04:31;100870.28;;;19.26;36.04
63115;BME280;49208;50.874;6.466;2023-04-27T08:06:57;100869.38;;;19.39;35.16
63115;BME280;49208;50.874;6.466;2023-04-27T08:09:22;100871.00;;;18.57;35.23
63115;BME280;49208;50.874;6.466;2023-04-27T08:11:47;100872.56;;;18.62;34.87
63115;BME280;49208;50.874;6.466;2023-04-27T08:14:13;100860.00;;;18.75;34.77
63115;BME280;49208;50.874;6.466;2023-04-27T08:16:42;100862.28;;;18.24;36.30
63115;BME280;49208;50.874;6.466;2023-04-27T08:19:09;100868.75;;;18.35;36.93
63115;BME280;49208;50.874;6.466;2023-04-27T08:21:36;100863.81;;;18.28;37.35
63115;BME280;49208;50.874;6.466;2023-04-27T08:24:02;100855.78;;;17.97;38.79
63115;BME280;49208;50.874;6.466;2023-04-27T08:26:27;100851.63;;;17.92;39.52
63115;BME280;49208;50.874;6.466;2023-04-27T08:28:53;100855.38;;;17.89;40.33
63115;BME280;49208;50.874;6.466;2023-04-27T08:31:20;100851.56;;;17.00;37.34
63115;BME280;49208;50.874;6.466;2023-04-27T08:33:46;100855.63;;;17.07;40.70
63115;BME280;49208;50.874;6.466;2023-04-27T08:36:11;100855.72;;;16.72;39.40
63115;BME280;49208;50.874;6.466;2023-04-27T08:38:36;100860.41;;;15.83;39.47
63115;BME280;49208;50.874;6.466;2023-04-27T08:41:02;100861.41;;;15.44;41.82
63115;BME280;49208;50.874;6.466;2023-04-27T08:43:32;100856.69;;;15.85;40.04
63115;BME280;49208;50.874;6.466;2023-04-27T08:45:57;100850.78;;;15.42;40.82
63115;BME280;49208;50.874;6.466;2023-04-27T08:48:23;100852.97;;;15.34;43.32
63115;BME280;49208;50.874;6.466;2023-04-27T08:50:49;100854.19;;;15.82;43.08
63115;BME280;49208;50.874;6.466;2023-04-27T08:53:19;100866.63;;;15.83;40.78
63115;BME280;49208;50.874;6.466;2023-04-27T08:55:49;100856.94;;;15.81;38.83
63115;BME280;49208;50.874;6.466;2023-04-27T08:58:14;100854.44;;;15.59;40.18
63115;BME280;49208;50.874;6.466;2023-04-27T09:00:41;100854.25;;;15.81;41.76
63115;BME280;49208;50.874;6.466;2023-04-27T09:03:23;100851.09;;;15.72;38.70
63115;BME280;49208;50.874;6.466;2023-04-27T09:05:49;100841.47;;;16.03;41.93
63115;BME280;49208;50.874;6.466;2023-04-27T09:08:15;100843.59;;;15.96;39.86
63115;BME280;49208;50.874;6.466;2023-04-27T09:10:49;100840.75;;;16.17;41.82
63115;BME280;49208;50.874;6.466;2023-04-27T09:13:15;100840.44;;;16.06;39.42
63115;BME280;49208;50.874;6.466;2023-04-27T09:15:44;100839.81;;;16.01;41.16
63115;BME280;49208;50.874;6.466;2023-04-27T09:18:16;100842.63;;;16.32;42.35
63115;BME280;49208;50.874;6.466;2023-04-27T09:20:46;100849.16;;;16.44;39.71
63115;BME280;49208;50.874;6.466;2023-04-27T09:23:34;100838.63;;;16.57;38.73
63115;BME280;49208;50.874;6.466;2023-04-27T09:26:04;100835.94;;;16.06;37.77
63115;BME280;49208;50.874;6.466;2023-04-27T09:28:37;100828.28;;;15.99;41.07
63115;BME280;49208;50.874;6.466;2023-04-27T09:31:04;100833.72;;;15.97;39.51
63115;BME280;49208;50.874;6.466;2023-04-27T09:33:34;100836.25;;;16.17;41.72
63115;BME280;49208;50.874;6.466;2023-04-27T09:36:04;100827.81;;;15.90;38.16
63115;BME280;49208;50.874;6.466;2023-04-27T09:38:30;100818.44;;;16.32;41.23
63115;BME280;49208;50.874;6.466;2023-04-27T09:40:56;100820.19;;;16.33;38.50
63115;BME280;49208;50.874;6.466;2023-04-27T09:43:22;100822.09;;;16.47;39.47
63115;BME280;49208;50.874;6.466;2023-04-27T09:45:49;100826.94;;;16.74;37.89
63115;BME280;49208;50.874;6.466;2023-04-27T09:48:16;100826.25;;;16.37;37.20
63115;BME280;49208;50.874;6.466;2023-04-27T09:50:44;100822.81;;;16.17;37.81
63115;BME280;49208;50.874;6.466;2023-04-27T09:53:11;100828.28;;;15.99;37.02
63115;BME280;49208;50.874;6.466;2023-04-27T09:58:48;100818.38;;;15.64;39.84
63115;BME280;49208;50.874;6.466;2023-04-27T10:01:28;100819.25;;;15.65;38.73
63115;BME280;49208;50.874;6.466;2023-04-27T10:04:01;100814.06;;;15.25;38.77
63115;BME280;49208;50.874;6.466;2023-04-27T10:06:50;100812.50;;;15.56;39.99
63115;BME280;49208;50.874;6.466;2023-04-27T10:09:19;100811.72;;;15.90;42.50
63115;BME280;49208;50.874;6.466;2023-04-27T10:11:48;100815.25;;;16.08;39.66
63115;BME280;49208;50.874;6.466;2023-04-27T10:14:20;100807.53;;;16.35;39.10
63115;BME280;49208;50.874;6.466;2023-04-27T10:16:57;100802.84;;;16.39;42.07
63115;BME280;49208;50.874;6.466;2023-04-27T10:19:23;100800.69;;;15.60;38.04
63115;BME280;49208;50.874;6.466;2023-04-27T10:21:57;100791.00;;;15.92;41.48
63115;BME280;49208;50.874;6.466;2023-04-27T10:24:39;100794.00;;;16.37;39.61
63115;BME280;49208;50.874;6.466;2023-04-27T10:27:06;100788.88;;;16.16;37.54
63115;BME280;49208;50.874;6.466;2023-04-27T10:29:42;100802.16;;;16.02;37.32
63115;BME280;49208;50.874;6.466;2023-04-27T10:32:10;100789.38;;;15.90;40.44
63115;BME280;49208;50.874;6.466;2023-04-27T10:34:36;100787.69;;;15.87;37.87
63115;BME280;49208;50.874;6.466;2023-04-27T10:37:09;100782.78;;;15.95;39.75
63115;BME280;49208;50.874;6.466;2023-04-27T10:39:38;100776.44;;;16.14;39.02
63115;BME280;49208;50.874;6.466;2023-04-27T10:42:04;100774.97;;;16.42;38.61
63115;BME280;49208;50.874;6.466;2023-04-27T10:44:31;100776.16;;;16.36;37.99
63115;BME280;49208;50.874;6.466;2023-04-27T10:46:59;100775.31;;;16.35;38.93
63115;BME280;49208;50.874;6.466;2023-04-27T10:49:27;100784.41;;;16.49;40.24
63115;BME280;49208;50.874;6.466;2023-04-27T10:51:53;100783.84;;;16.75;38.64
63115;BME280;49208;50.874;6.466;2023-04-27T10:54:18;100786.47;;;16.93;39.37
63115;BME280;49208;50.874;6.466;2023-04-27T10:56:44;100782.72;;;16.80;36.60
63115;BME280;49208;50.874;6.466;2023-04-27T10:59:10;100779.41;;;16.59;37.32
63115;BME280;49208;50.874;6.466;2023-04-27T11:01:35;100784.03;;;16.39;36.00
63115;BME280;49208;50.874;6.466;2023-04-27T11:04:02;100782.78;;;16.46;38.79
63115;BME280;49208;50.874;6.466;2023-04-27T11:06:30;100778.56;;;16.58;40.14
63115;BME280;49208;50.874;6.466;2023-04-27T11:08:59;100770.31;;;16.77;39.00
63115;BME280;49208;50.874;6.466;2023-04-27T11:11:25;100766.63;;;16.95;40.03
63115;BME280;49208;50.874;6.466;2023-04-27T11:13:50;100768.50;;;17.25;39.44
63115;BME280;49208;50.874;6.466;2023-04-27T11:16:19;100761.94;;;17.45;39.49
63115;BME280;49208;50.874;6.466;2023-04-27T11:18:45;100770.09;;;17.44;37.57
63115;BME280;49208;50.874;6.466;2023-04-27T11:21:13;100764.63;;;17.45;36.47
63115;BME280;49208;50.874;6.466;2023-04-27T11:23:39;100763.34;;;17.36;35.96
63115;BME280;49208;50.874;6.466;2023-04-27T11:28:33;100747.38;;;16.87;35.15
63115;BME280;49208;50.874;6.466;2023-04-27T11:30:59;100744.56;;;16.89;37.16
63115;BME280;49208;50.874;6.466;2023-04-27T11:33:25;100738.06;;;16.61;35.28
63115;BME280;49208;50.874;6.466;2023-04-27T11:35:52;100734.66;;;16.57;38.39
63115;BME280;49208;50.874;6.466;2023-04-27T11:38:18;100737.56;;;16.86;37.81
63115;BME280;49208;50.874;6.466;2023-04-27T11:40:45;100732.97;;;16.88;39.04
63115;BME280;49208;50.874;6.466;2023-04-27T11:43:11;100728.59;;;16.70;37.22
63115;BME280;49208;50.874;6.466;2023-04-27T11:45:41;100731.19;;;16.55;39.24
63115;BME280;49208;50.874;6.466;2023-04-27T11:48:12;100726.69;;;16.56;36.93
63115;BME280;49208;50.874;6.466;2023-04-27T11:50:38;100732.50;;;16.48;37.13
63115;BME280;49208;50.874;6.466;2023-04-27T11:53:03;100719.81;;;16.34;39.47
63115;BME280;49208;50.874;6.466;2023-04-27T11:55:29;100717.22;;;16.17;40.17
63115;BME280;49208;50.874;6.466;2023-04-27T11:57:56;100717.13;;;16.19;39.68
63115;BME280;49208;50.874;6.466;2023-04-27T12:00:23;100712.63;;;16.19;37.29
63115;BME280;49208;50.874;6.466;2023-04-27T12:02:48;100713.22;;;15.91;36.93
63115;BME280;49208;50.874;6.466;2023-04-27T12:05:14;100721.88;;;16.13;39.16
63115;BME280;49208;50.874;6.466;2023-04-27T12:07:40;100717.09;;;16.03;37.79
63115;BME280;49208;50.874;6.466;2023-04-27T12:10:07;100705.34;;;16.21;40.06
63115;BME280;49208;50.874;6.466;2023-04-27T12:12:33;100705.59;;;16.32;36.75
63115;BME280;49208;50.874;6.466;2023-04-27T12:14:58;100706.03;;;16.41;37.62
63115;BME280;49208;50.874;6.466;2023-04-27T12:17:24;100708.22;;;16.34;37.77
63115;BME280;49208;50.874;6.466;2023-04-27T12:19:49;100707.28;;;16.51;39.05
63115;BME280;49208;50.874;6.466;2023-04-27T12:22:14;100716.63;;;16.75;38.99
63115;BME280;49208;50.874;6.466;2023-04-27T12:24:40;100710.13;;;16.80;37.34
63115;BME280;49208;50.874;6.466;2023-04-27T12:27:05;100710.75;;;17.01;37.24
63115;BME280;49208;50.874;6.466;2023-04-27T12:29:31;100706.81;;;16.74;38.83
63115;BME280;49208;50.874;6.466;2023-04-27T12:32:00;100707.97;;;16.86;38.04
63115;BME280;49208;50.874;6.466;2023-04-27T12:34:26;100696.78;;;16.94;37.05
63115;BME280;49208;50.874;6.466;2023-04-27T12:36:52;100698.25;;;17.00;36.55
63115;BME280;49208;50.874;6.466;2023-04-27T12:39:19;100699.13;;;17.00;36.01
63115;BME280;49208;50.874;6.466;2023-04-27T12:41:46;100694.00;;;16.80;35.68
63115;BME280;49208;50.874;6.466;2023-04-27T12:44:12;100697.47;;;16.66;38.86
63115;BME280;49208;50.874;6.466;2023-04-27T12:46:39;100689.84;;;16.74;37.89
63115;BME280;49208;50.874;6.466;2023-04-27T12:49:05;100689.84;;;16.74;38.02
63115;BME280;49208;50.874;6.466;2023-04-27T12:51:31;100687.56;;;16.66;37.40
63115;BME280;49208;50.874;6.466;2023-04-27T12:53:58;100687.34;;;16.55;37.01
63115;BME280;49208;50.874;6.466;2023-04-27T12:56:24;100689.31;;;16.51;37.61
63115;BME280;49208;50.874;6.466;2023-04-27T12:58:49;100688.91;;;16.75;38.13
63115;BME280;49208;50.874;6.466;2023-04-27T13:01:15;100678.22;;;16.73;37.68
63115;BME280;49208;50.874;6.466;2023-04-27T13:03:45;100691.56;;;16.91;37.14
63115;BME280;49208;50.874;6.466;2023-04-27T13:06:11;100688.13;;;16.73;36.25
63115;BME280;49208;50.874;6.466;2023-04-27T13:08:36;100695.13;;;16.60;38.01
63115;BME280;49208;50.874;6.466;2023-04-27T13:11:02;100695.91;;;16.62;36.87
63115;BME280;49208;50.874;6.466;2023-04-27T13:13:28;100691.41;;;16.62;37.22
63115;BME280;49208;50.874;6.466;2023-04-27T13:15:53;100683.94;;;16.67;35.50
63115;BME280;49208;50.874;6.466;2023-04-27T13:18:18;100679.88;;;16.60;38.10
63115;BME280;49208;50.874;6.466;2023-04-27T13:20:44;100678.41;;;16.54;38.78
63115;BME280;49208;50.874;6.466;2023-04-27T13:23:10;100674.59;;;16.59;36.81
63115;BME280;49208;50.874;6.466;2023-04-27T13:25:35;100677.63;;;16.52;37.30
63115;BME280;49208;50.874;6.466;2023-04-27T13:28:01;100672.53;;;16.48;39.02
63115;BME280;49208;50.874;6.466;2023-04-27T13:30:26;100664.69;;;16.59;38.75
63115;BME280;49208;50.874;6.466;2023-04-27T13:32:52;100666.78;;;16.70;37.16
63115;BME280;49208;50.874;6.466;2023-04-27T13:35:18;100661.59;;;16.67;37.27
63115;BME280;49208;50.874;6.466;2023-04-27T13:37:44;100658.63;;;16.55;37.19
63115;BME280;49208;50.874;6.466;2023-04-27T13:40:09;100656.38;;;16.16;36.89
63115;BME280;49208;50.874;6.466;2023-04-27T13:42:35;100660.34;;;16.25;38.46
63115;BME280;49208;50.874;6.466;2023-04-27T13:45:02;100662.28;;;16.39;40.34
63115;BME280;49208;50.874;6.466;2023-04-27T13:47:28;100647.22;;;16.52;38.90
63115;BME280;49208;50.874;6.466;2023-04-27T13:50:04;100656.28;;;16.49;38.15
63115;BME280;49208;50.874;6.466;2023-04-27T13:52:30;100648.22;;;16.49;37.95
63115;BME280;49208;50.874;6.466;2023-04-27T13:54:55;100637.91;;;16.57;39.76
63115;BME280;49208;50.874;6.466;2023-04-27T13:57:21;100632.66;;;16.08;37.46
63115;BME280;49208;50.874;6.466;2023-04-27T13:59:46;100627.34;;;16.07;37.48
63115;BME280;49208;50.874;6.466;2023-04-27T14:02:12;100622.84;;;16.07;38.17
63115;BME280;49208;50.874;6.466;2023-04-27T14:04:37;100628.56;;;16.17;39.24
63115;BME280;49208;50.874;6.466;2023-04-27T14:07:02;100625.44;;;16.25;38.79
63115;BME280;49208;50.874;6.466;2023-04-27T14:09:28;100621.72;;;16.27;38.71
63115;BME280;49208;50.874;6.466;2023-04-27T14:11:54;100619.56;;;16.02;36.88
63115;BME280;49208;50.874;6.466;2023-04-27T14:14:21;100623.06;;;15.87;38.20
63115;BME280;49208;50.874;6.466;2023-04-27T14:16:46;100622.13;;;16.04;38.41
63115;BME280;49208;50.874;6.466;2023-04-27T14:19:13;100611.84;;;15.96;38.29
63115;BME280;49208;50.874;6.466;2023-04-27T14:21:40;100613.78;;;15.76;38.29
63115;BME280;49208;50.874;6.466;2023-04-27T14:24:05;100602.75;;;15.65;38.83
63115;BME280;49208;50.874;6.466;2023-04-27T14:26:31;100600.94;;;15.66;40.21
63115;BME280;49208;50.874;6.466;2023-04-27T14:28:56;100593.22;;;15.60;40.02
63115;BME280;49208;50.874;6.466;2023-04-27T14:31:23;100590.59;;;15.58;39.17
63115;BME280;49208;50.874;6.466;2023-04-27T14:33:49;100583.41;;;15.76;40.08
63115;BME280;49208;50.874;6.466;2023-04-27T14:36:15;100587.84;;;15.93;40.64
63115;BME280;49208;50.874;6.466;2023-04-27T14:38:42;100575.28;;;15.78;39.84
63115;BME280;49208;50.874;6.466;2023-04-27T14:41:08;100577.84;;;15.79;39.39
63115;BME280;49208;50.874;6.466;2023-04-27T14:43:33;100573.19;;;15.83;39.90
63115;BME280;49208;50.874;6.466;2023-04-27T14:45:58;100559.34;;;15.90;39.57
63115;BME280;49208;50.874;6.466;2023-04-27T14:48:24;100553.28;;;15.87;40.51
63115;BME280;49208;50.874;6.466;2023-04-27T14:50:51;100554.41;;;15.83;39.08
63115;BME280;49208;50.874;6.466;2023-04-27T14:53:16;100551.38;;;15.89;40.21
63115;BME280;49208;50.874;6.466;2023-04-27T14:55:42;100550.59;;;15.87;39.99
63115;BME280;49208;50.874;6.466;2023-04-27T14:58:10;100553.34;;;15.85;39.31
63115;BME280;49208;50.874;6.466;2023-04-27T15:00:35;100543.84;;;15.80;40.92
63115;BME280;49208;50.874;6.466;2023-04-27T15:03:01;100551.28;;;15.90;41.00
63115;BME280;49208;50.874;6.466;2023-04-27T15:05:26;100553.69;;;15.79;39.78
63115;BME280;49208;50.874;6.466;2023-04-27T15:07:52;100555.25;;;15.83;40.86
63115;BME280;49208;50.874;6.466;2023-04-27T15:10:17;100546.53;;;15.95;39.26
63115;BME280;49208;50.874;6.466;2023-04-27T15:12:42;100544.81;;;16.10;40.05
63115;BME280;49208;50.874;6.466;2023-04-27T15:15:08;100538.75;;;16.07;40.71
63115;BME280;49208;50.874;6.466;2023-04-27T15:17:33;100544.47;;;16.01;41.94
63115;BME280;49208;50.874;6.466;2023-04-27T15:19:59;100543.34;;;16.05;39.49
63115;BME280;49208;50.874;6.466;2023-04-27T15:22:25;100531.81;;;16.19;40.25
63115;BME280;49208;50.874;6.466;2023-04-27T15:24:52;100538.91;;;16.04;38.75
63115;BME280;49208;50.874;6.466;2023-04-27T15:27:18;100538.03;;;16.03;39.77
63115;BME280;49208;50.874;6.466;2023-04-27T15:29:43;100536.06;;;15.75;39.50
63115;BME280;49208;50.874;6.466;2023-04-27T15:32:08;100536.84;;;15.60;39.46
63115;BME280;49208;50.874;6.466;2023-04-27T15:34:34;100524.50;;;15.57;40.02
63115;BME280;49208;50.874;6.466;2023-04-27T15:36:59;100529.84;;;15.57;40.92
63115;BME280;49208;50.874;6.466;2023-04-27T15:39:25;100516.25;;;15.60;40.90
63115;BME280;49208;50.874;6.466;2023-04-27T15:41:51;100528.28;;;15.53;40.91
63115;BME280;49208;50.874;6.466;2023-04-27T15:44:16;100527.78;;;15.29;40.44
63115;BME280;49208;50.874;6.466;2023-04-27T15:46:42;100530.16;;;15.35;41.16
63115;BME280;49208;50.874;6.466;2023-04-27T15:49:07;100531.00;;;15.35;41.62
63115;BME280;49208;50.874;6.466;2023-04-27T15:51:33;100530.66;;;15.26;40.73
63115;BME280;49208;50.874;6.466;2023-04-27T15:53:58;100525.28;;;15.26;40.62
63115;BME280;49208;50.874;6.466;2023-04-27T15:56:23;100521.38;;;15.31;41.59
63115;BME280;49208;50.874;6.466;2023-04-27T15:58:51;100526.22;;;15.25;41.87
63115;BME280;49208;50.874;6.466;2023-04-27T16:01:16;100519.22;;;15.22;42.64
63115;BME280;49208;50.874;6.466;2023-04-27T16:03:42;100514.31;;;14.97;41.53
63115;BME280;49208;50.874;6.466;2023-04-27T16:06:07;100530.09;;;14.86;41.63
63115;BME280;49208;50.874;6.466;2023-04-27T16:08:33;100520.84;;;14.91;42.24
63115;BME280;49208;50.874;6.466;2023-04-27T16:10:59;100523.69;;;14.88;42.88
63115;BME280;49208;50.874;6.466;2023-04-27T16:13:24;100516.75;;;14.84;43.14
63115;BME280;49208;50.874;6.466;2023-04-27T16:15:51;100507.94;;;14.82;43.10
63115;BME280;49208;50.874;6.466;2023-04-27T16:18:16;100511.09;;;14.73;42.85
63115;BME280;49208;50.874;6.466;2023-04-27T16:20:42;100504.78;;;14.57;42.61
63115;BME280;49208;50.874;6.466;2023-04-27T16:23:07;100502.03;;;14.58;42.82
63115;BME280;49208;50.874;6.466;2023-04-27T16:25:32;100494.19;;;14.53;43.20
63115;BME280;49208;50.874;6.466;2023-04-27T16:27:58;100492.28;;;14.57;42.62
63115;BME280;49208;50.874;6.466;2023-04-27T16:30:23;100476.75;;;14.64;42.83
63115;BME280;49208;50.874;6.466;2023-04-27T16:32:49;100481.53;;;14.74;42.72
63115;BME280;49208;50.874;6.466;2023-04-27T16:35:15;100480.09;;;14.85;43.40
63115;BME280;49208;50.874;6.466;2023-04-27T16:37:40;100476.06;;;14.93;43.60
63115;BME280;49208;50.874;6.466;2023-04-27T16:40:06;100470.03;;;14.72;42.50
63115;BME280;49208;50.874;6.466;2023-04-27T16:42:32;100471.22;;;14.84;42.66
63115;BME280;49208;50.874;6.466;2023-04-27T16:44:57;100470.22;;;14.69;42.03
63115;BME280;49208;50.874;6.466;2023-04-27T16:47:24;100469.31;;;14.69;41.83
63115;BME280;49208;50.874;6.466;2023-04-27T16:49:50;100465.66;;;14.52;41.12
63115;BME280;49208;50.874;6.466;2023-04-27T16:52:15;100461.97;;;14.38;41.88
63115;BME280;49208;50.874;6.466;2023-04-27T16:54:42;100468.28;;;14.37;42.19
63115;BME280;49208;50.874;6.466;2023-04-27T16:57:07;100464.81;;;14.34;43.59
63115;BME280;49208;50.874;6.466;2023-04-27T16:59:32;100464.03;;;14.32;43.44
63115;BME280;49208;50.874;6.466;2023-04-27T17:01:58;100451.88;;;14.25;42.65
63115;BME280;49208;50.874;6.466;2023-04-27T17:04:23;100452.19;;;14.19;43.83
63115;BME280;49208;50.874;6.466;2023-04-27T17:06:48;100446.34;;;14.11;43.33
63115;BME280;49208;50.874;6.466;2023-04-27T17:09:14;100437.53;;;14.09;43.24
63115;BME280;49208;50.874;6.466;2023-04-27T17:11:39;100445.88;;;14.03;42.79
63115;BME280;49208;50.874;6.466;2023-04-27T17:14:05;100442.41;;;14.01;44.11
63115;BME280;49208;50.874;6.466;2023-04-27T17:16:30;100444.22;;;14.00;44.56
63115;BME280;49208;50.874;6.466;2023-04-27T17:18:56;100439.97;;;13.96;43.79
63115;BME280;49208;50.874;6.466;2023-04-27T17:21:22;100441.22;;;13.89;43.70
63115;BME280;49208;50.874;6.466;2023-04-27T17:23:49;100437.63;;;13.71;43.66
63115;BME280;49208;50.874;6.466;2023-04-27T17:26:17;100444.72;;;13.72;44.89
63115;BME280;49208;50.874;6.466;2023-04-27T17:28:44;100451.38;;;13.63;44.96
63115;BME280;49208;50.874;6.466;2023-04-27T17:31:10;100452.63;;;13.56;44.52
63115;BME280;49208;50.874;6.466;2023-04-27T17:33:36;100443.00;;;13.52;45.35
63115;BME280;49208;50.874;6.466;2023-04-27T17:36:03;100442.38;;;13.47;45.98
63115;BME280;49208;50.874;6.466;2023-04-27T17:38:29;100440.06;;;13.39;45.95
63115;BME280;49208;50.874;6.466;2023-04-27T17:40:54;100439.56;;;13.31;45.09
63115;BME280;49208;50.874;6.466;2023-04-27T17:43:20;100436.97;;;13.28;46.51
63115;BME280;49208;50.874;6.466;2023-04-27T17:45:45;100440.88;;;13.21;45.87
63115;BME280;49208;50.874;6.466;2023-04-27T17:48:10;100436.63;;;13.17;45.78
63115;BME280;49208;50.874;6.466;2023-04-27T17:50:36;100436.03;;;13.10;46.24
63115;BME280;49208;50.874;6.466;2023-04-27T17:53:02;100428.25;;;13.05;46.05
63115;BME280;49208;50.874;6.466;2023-04-27T17:55:27;100429.38;;;13.00;46.19
63115;BME280;49208;50.874;6.466;2023-04-27T17:57:53;100429.59;;;12.95;46.37
63115;BME280;49208;50.874;6.466;2023-04-27T18:00:18;100423.59;;;12.90;46.87
63115;BME280;49208;50.874;6.466;2023-04-27T18:02:44;100429.88;;;12.89;46.94
63115;BME280;49208;50.874;6.466;2023-04-27T18:05:12;100419.53;;;12.81;47.75
63115;BME280;49208;50.874;6.466;2023-04-27T18:07:37;100427.81;;;12.75;46.91
63115;BME280;49208;50.874;6.466;2023-04-27T18:10:03;100428.97;;;12.69;46.94
63115;BME280;49208;50.874;6.466;2023-04-27T18:12:29;100422.81;;;12.67;47.27
63115;BME280;49208;50.874;6.466;2023-04-27T18:14:55;100429.31;;;12.62;47.36
63115;BME280;49208;50.874;6.466;2023-04-27T18:17:20;100418.97;;;12.54;47.52
63115;BME280;49208;50.874;6.466;2023-04-27T18:19:46;100416.50;;;12.49;48.53
63115;BME280;49208;50.874;6.466;2023-04-27T18:22:11;100428.25;;;12.45;48.68
63115;BME280;49208;50.874;6.466;2023-04-27T18:24:37;100427.63;;;12.39;47.99
63115;BME280;49208;50.874;6.466;2023-04-27T18:27:02;100422.44;;;12.36;48.09
63115;BME280;49208;50.874;6.466;2023-04-27T18:29:28;100426.25;;;12.30;48.95
63115;BME280;49208;50.874;6.466;2023-04-27T18:31:53;100417.44;;;12.28;48.12
63115;BME280;49208;50.874;6.466;2023-04-27T18:34:19;100420.31;;;12.23;50.73
63115;BME280;49208;50.874;6.466;2023-04-27T18:36:45;100426.03;;;12.14;49.87
63115;BME280;49208;50.874;6.466;2023-04-27T18:39:18;100421.81;;;12.08;51.50
63115;BME280;49208;50.874;6.466;2023-04-27T18:41:44;100416.69;;;12.04;50.27
63115;BME280;49208;50.874;6.466;2023-04-27T18:44:10;100416.00;;;11.99;50.13
63115;BME280;49208;50.874;6.466;2023-04-27T18:46:35;100408.16;;;11.96;51.66
63115;BME280;49208;50.874;6.466;2023-04-27T18:49:01;100411.88;;;11.91;50.65
63115;BME280;49208;50.874;6.466;2023-04-27T18:51:26;100410.16;;;11.89;51.39
63115;BME280;49208;50.874;6.466;2023-04-27T18:53:53;100398.66;;;11.87;49.90